Waterport, NY (14571)

2:13 AM EDT on May 06, 2015 (GMT -0400)
Lakeshore - Cinnamon Lane | | Change Station
CLOSE
Current Station
Personal Weather Station
Location: Lyndonville, NY
Elevation: 260 ft
Nearby Weather Stations

Elev 260 ft 43.37 °N, 78.35 °W | Updated 57 seconds ago

Mostly Cloudy
Mostly Cloudy
44.6 °F
Feels Like 45 °F
N
0.7
Wind Variable Wind from East
Gusts 1.6 mph

Today
High -- | Low -- °F
--% Chance of Precip.
Yesterday
High -- | Low -- °F
Precip. -- in
5:59 AM 8:20 PM
Waning Gibbous, 95% visible
Pressure 30.30 in
Visibility 10.0 miles
Clouds Mostly Cloudy 5500 ft
Overcast 7000 ft
Windchill 45 °F
Dew Point 44 °F
Humidity 97%
Rainfall 0.00 in
Snow Depth Not available.
UV 0 out of 12
Pollen 8.10 out of 12
Air Quality Not available.
Flu Activity Widespread
METAR KROC 060554Z 00000KT 10SM BKN055 OVC070 14/08 A3029 RMK AO2 SLP261 BINOVC T01390078 10161 20133 50002

More Conditions Fewer Conditions

Pressure 30.30 in
Visibility 10.0 miles
Clouds Mostly Cloudy 5500 ft
Overcast 7000 ft
Windchill 45 °F
Dew Point 44 °F
Humidity 97%
Rainfall 0.00 in
Snow Depth Not available.
UV 0 out of 12
Pollen 8.10 out of 12
Air Quality Not available.
Flu Activity Widespread
METAR KROC 060554Z 00000KT 10SM BKN055 OVC070 14/08 A3029 RMK AO2 SLP261 BINOVC T01390078 10161 20133 50002

More Conditions Fewer Conditions

10-Day Weather Forecast

Almanac

Astronomy

May. 06, 2015 Rise Set
Actual Time
Civil Twilight
Nautical Twilight
Astronomical Twilight
Moon
Length of Visible Light
Length of Day
Tomorrow will be .
, % of the Moon is Illuminated

Today's Extremes

State Highs State Lows

Community

WunderPhotos

Upload Photos

1,818,848 photos uploaded!

WunderBlogs® & News

Nearby

Air Quality

  Air Quality AQ Index Pollutant
Not available.

Snow Depth

Station Depth Elevation

Earthquake Activity

City Distance Mag. Time & Date
Minimum magnitude displayed is 2.5.

Coastal Water Temperatures

Place Temperature

Stations

Nearby Weather Stations

Station Location Temp. Windchill Dew Point Humidity Wind Precip. Elev Updated Type